sensor_id;sensor_type;location;lat;lon;timestamp;temperature;humidity
27896;DHT22;15241;48.374;10.876;2023-04-03T00:01:27;5.70;99.90
27896;DHT22;15241;48.374;10.876;2023-04-03T00:06:26;5.70;99.90
27896;DHT22;15241;48.374;10.876;2023-04-03T00:11:25;5.80;99.90
27896;DHT22;15241;48.374;10.876;2023-04-03T00:16:24;5.60;99.90
27896;DHT22;15241;48.374;10.876;2023-04-03T00:21:23;5.60;99.90
27896;DHT22;15241;48.374;10.876;2023-04-03T00:26:22;5.60;99.90
27896;DHT22;15241;48.374;10.876;2023-04-03T00:31:21;5.60;99.90
27896;DHT22;15241;48.374;10.876;2023-04-03T00:36:20;5.60;99.90
27896;DHT22;15241;48.374;10.876;2023-04-03T00:41:19;5.60;99.90
27896;DHT22;15241;48.374;10.876;2023-04-03T00:46:18;5.60;99.90
27896;DHT22;15241;48.374;10.876;2023-04-03T00:51:19;5.60;99.90
27896;DHT22;15241;48.374;10.876;2023-04-03T00:56:21;5.50;99.90
27896;DHT22;15241;48.374;10.876;2023-04-03T01:01:24;5.50;99.90
27896;DHT22;15241;48.374;10.876;2023-04-03T01:06:26;5.60;99.90
27896;DHT22;15241;48.374;10.876;2023-04-03T01:11:26;5.50;99.90
27896;DHT22;15241;48.374;10.876;2023-04-03T01:16:25;5.60;99.90
27896;DHT22;15241;48.374;10.876;2023-04-03T01:22:06;5.60;99.90
27896;DHT22;15241;48.374;10.876;2023-04-03T01:27:08;5.60;99.90
27896;DHT22;15241;48.374;10.876;2023-04-03T01:32:08;5.50;99.90
27896;DHT22;15241;48.374;10.876;2023-04-03T01:37:07;5.50;99.90
27896;DHT22;15241;48.374;10.876;2023-04-03T01:42:06;5.60;99.90
27896;DHT22;15241;48.374;10.876;2023-04-03T01:47:07;5.60;99.90
27896;DHT22;15241;48.374;10.876;2023-04-03T01:52:06;5.50;99.90
27896;DHT22;15241;48.374;10.876;2023-04-03T01:57:05;5.50;99.90
27896;DHT22;15241;48.374;10.876;2023-04-03T02:02:04;5.50;99.90
27896;DHT22;15241;48.374;10.876;2023-04-03T02:07:03;5.60;99.90
27896;DHT22;15241;48.374;10.876;2023-04-03T02:12:02;5.50;99.90
27896;DHT22;15241;48.374;10.876;2023-04-03T02:17:02;5.50;99.90
27896;DHT22;15241;48.374;10.876;2023-04-03T02:22:01;5.50;99.90
27896;DHT22;15241;48.374;10.876;2023-04-03T02:27:00;5.50;99.90
27896;DHT22;15241;48.374;10.876;2023-04-03T02:31:59;5.50;99.90
27896;DHT22;15241;48.374;10.876;2023-04-03T02:36:58;5.50;99.90
27896;DHT22;15241;48.374;10.876;2023-04-03T02:41:57;5.40;99.90
27896;DHT22;15241;48.374;10.876;2023-04-03T02:46:56;5.40;99.90
27896;DHT22;15241;48.374;10.876;2023-04-03T02:51:55;5.40;99.90
27896;DHT22;15241;48.374;10.876;2023-04-03T02:56:53;5.40;99.90
27896;DHT22;15241;48.374;10.876;2023-04-03T03:01:52;5.40;99.90
27896;DHT22;15241;48.374;10.876;2023-04-03T03:06:51;5.40;99.90
27896;DHT22;15241;48.374;10.876;2023-04-03T03:11:50;5.50;99.90
27896;DHT22;15241;48.374;10.876;2023-04-03T03:16:49;5.40;99.90
27896;DHT22;15241;48.374;10.876;2023-04-03T03:21:48;5.30;99.90
27896;DHT22;15241;48.374;10.876;2023-04-03T03:26:47;5.30;99.90
27896;DHT22;15241;48.374;10.876;2023-04-03T03:31:46;5.30;99.90
27896;DHT22;15241;48.374;10.876;2023-04-03T03:36:45;5.40;99.90
27896;DHT22;15241;48.374;10.876;2023-04-03T03:41:44;5.30;99.90
27896;DHT22;15241;48.374;10.876;2023-04-03T03:46:44;5.30;99.90
27896;DHT22;15241;48.374;10.876;2023-04-03T03:51:43;5.20;99.90
27896;DHT22;15241;48.374;10.876;2023-04-03T03:56:42;5.20;99.90
27896;DHT22;15241;48.374;10.876;2023-04-03T04:01:41;5.20;99.90
27896;DHT22;15241;48.374;10.876;2023-04-03T04:06:40;5.20;99.90
27896;DHT22;15241;48.374;10.876;2023-04-03T04:11:39;5.20;99.90
27896;DHT22;15241;48.374;10.876;2023-04-03T04:16:38;5.30;99.90
27896;DHT22;15241;48.374;10.876;2023-04-03T04:21:37;5.20;99.90
27896;DHT22;15241;48.374;10.876;2023-04-03T04:26:36;5.20;99.90
27896;DHT22;15241;48.374;10.876;2023-04-03T04:31:35;5.20;99.90
27896;DHT22;15241;48.374;10.876;2023-04-03T04:36:35;5.10;99.90
27896;DHT22;15241;48.374;10.876;2023-04-03T04:41:34;5.20;99.90
27896;DHT22;15241;48.374;10.876;2023-04-03T04:46:33;5.20;99.90
27896;DHT22;15241;48.374;10.876;2023-04-03T04:51:32;5.10;99.90
27896;DHT22;15241;48.374;10.876;2023-04-03T04:56:32;5.10;99.90
27896;DHT22;15241;48.374;10.876;2023-04-03T05:06:39;5.00;99.90
27896;DHT22;15241;48.374;10.876;2023-04-03T05:11:38;5.00;99.90
27896;DHT22;15241;48.374;10.876;2023-04-03T05:16:37;5.00;99.90
27896;DHT22;15241;48.374;10.876;2023-04-03T05:21:36;5.00;99.90
27896;DHT22;15241;48.374;10.876;2023-04-03T05:26:35;5.00;99.90
27896;DHT22;15241;48.374;10.876;2023-04-03T05:31:34;5.00;99.90
27896;DHT22;15241;48.374;10.876;2023-04-03T05:36:32;5.00;99.90
27896;DHT22;15241;48.374;10.876;2023-04-03T05:41:32;5.10;99.90
27896;DHT22;15241;48.374;10.876;2023-04-03T05:46:31;5.10;99.90
27896;DHT22;15241;48.374;10.876;2023-04-03T05:51:32;5.10;99.90
27896;DHT22;15241;48.374;10.876;2023-04-03T05:56:31;5.10;99.90
27896;DHT22;15241;48.374;10.876;2023-04-03T06:01:30;5.20;99.90
27896;DHT22;15241;48.374;10.876;2023-04-03T06:06:44;5.20;99.90
27896;DHT22;15241;48.374;10.876;2023-04-03T06:11:44;5.20;99.90
27896;DHT22;15241;48.374;10.876;2023-04-03T06:16:43;5.20;99.90
27896;DHT22;15241;48.374;10.876;2023-04-03T06:21:42;5.30;99.90
27896;DHT22;15241;48.374;10.876;2023-04-03T06:26:41;5.20;99.90
27896;DHT22;15241;48.374;10.876;2023-04-03T06:31:40;5.30;99.90
27896;DHT22;15241;48.374;10.876;2023-04-03T06:36:39;5.30;99.90
27896;DHT22;15241;48.374;10.876;2023-04-03T06:41:38;5.50;99.90
27896;DHT22;15241;48.374;10.876;2023-04-03T06:46:38;5.60;99.90
27896;DHT22;15241;48.374;10.876;2023-04-03T06:51:37;5.60;99.90
27896;DHT22;15241;48.374;10.876;2023-04-03T06:56:36;5.70;99.90
27896;DHT22;15241;48.374;10.876;2023-04-03T07:01:35;5.70;99.90
27896;DHT22;15241;48.374;10.876;2023-04-03T07:06:35;5.90;99.90
27896;DHT22;15241;48.374;10.876;2023-04-03T07:11:34;6.00;99.90
27896;DHT22;15241;48.374;10.876;2023-04-03T07:16:33;6.10;99.90
27896;DHT22;15241;48.374;10.876;2023-04-03T07:21:32;6.30;99.90
27896;DHT22;15241;48.374;10.876;2023-04-03T07:26:32;6.40;99.90
27896;DHT22;15241;48.374;10.876;2023-04-03T07:31:31;6.60;99.90
27896;DHT22;15241;48.374;10.876;2023-04-03T07:36:31;6.60;99.90
27896;DHT22;15241;48.374;10.876;2023-04-03T07:41:30;6.80;99.90
27896;DHT22;15241;48.374;10.876;2023-04-03T07:46:29;6.90;99.90
27896;DHT22;15241;48.374;10.876;2023-04-03T07:51:28;7.00;99.90
27896;DHT22;15241;48.374;10.876;2023-04-03T07:56:27;7.20;99.90
27896;DHT22;15241;48.374;10.876;2023-04-03T08:01:26;7.30;99.90
27896;DHT22;15241;48.374;10.876;2023-04-03T08:06:25;7.40;99.90
27896;DHT22;15241;48.374;10.876;2023-04-03T08:11:24;7.20;99.90
27896;DHT22;15241;48.374;10.876;2023-04-03T08:16:24;7.30;99.90
27896;DHT22;15241;48.374;10.876;2023-04-03T08:21:23;7.50;99.90
27896;DHT22;15241;48.374;10.876;2023-04-03T08:26:22;7.60;99.90
27896;DHT22;15241;48.374;10.876;2023-04-03T08:31:21;7.70;99.90
27896;DHT22;15241;48.374;10.876;2023-04-03T08:36:22;7.90;99.90
27896;DHT22;15241;48.374;10.876;2023-04-03T08:41:26;7.80;99.90
27896;DHT22;15241;48.374;10.876;2023-04-03T08:46:30;8.00;99.90
27896;DHT22;15241;48.374;10.876;2023-04-03T08:51:28;8.10;99.90
27896;DHT22;15241;48.374;10.876;2023-04-03T08:56:28;8.00;99.90
27896;DHT22;15241;48.374;10.876;2023-04-03T09:01:30;7.90;99.90
27896;DHT22;15241;48.374;10.876;2023-04-03T09:06:32;7.90;99.90
27896;DHT22;15241;48.374;10.876;2023-04-03T09:11:39;7.70;99.90
27896;DHT22;15241;48.374;10.876;2023-04-03T09:16:42;7.60;99.90
27896;DHT22;15241;48.374;10.876;2023-04-03T09:21:40;7.60;99.90
27896;DHT22;15241;48.374;10.876;2023-04-03T09:26:43;7.70;99.90
27896;DHT22;15241;48.374;10.876;2023-04-03T09:31:44;7.60;99.90
27896;DHT22;15241;48.374;10.876;2023-04-03T09:36:45;7.50;99.90
27896;DHT22;15241;48.374;10.876;2023-04-03T09:47:21;7.60;99.90
27896;DHT22;15241;48.374;10.876;2023-04-03T09:52:22;7.60;99.90
27896;DHT22;15241;48.374;10.876;2023-04-03T09:57:22;7.60;99.90
27896;DHT22;15241;48.374;10.876;2023-04-03T10:02:36;7.80;99.90
27896;DHT22;15241;48.374;10.876;2023-04-03T10:07:37;7.80;99.90
27896;DHT22;15241;48.374;10.876;2023-04-03T10:12:37;8.00;99.90
27896;DHT22;15241;48.374;10.876;2023-04-03T10:17:42;8.10;99.90
27896;DHT22;15241;48.374;10.876;2023-04-03T10:22:44;8.20;99.90
27896;DHT22;15241;48.374;10.876;2023-04-03T10:27:51;8.30;99.90
27896;DHT22;15241;48.374;10.876;2023-04-03T10:32:57;8.30;99.90
27896;DHT22;15241;48.374;10.876;2023-04-03T10:38:03;8.30;99.90
27896;DHT22;15241;48.374;10.876;2023-04-03T10:43:06;8.10;99.90
27896;DHT22;15241;48.374;10.876;2023-04-03T10:48:08;8.20;99.90
27896;DHT22;15241;48.374;10.876;2023-04-03T10:53:12;8.00;99.90
27896;DHT22;15241;48.374;10.876;2023-04-03T11:03:29;8.20;99.90
27896;DHT22;15241;48.374;10.876;2023-04-03T11:08:31;8.20;99.90
27896;DHT22;15241;48.374;10.876;2023-04-03T11:13:33;8.10;99.90
27896;DHT22;15241;48.374;10.876;2023-04-03T11:18:37;8.10;99.90
27896;DHT22;15241;48.374;10.876;2023-04-03T11:23:37;8.00;99.90
27896;DHT22;15241;48.374;10.876;2023-04-03T11:28:38;7.90;99.90
27896;DHT22;15241;48.374;10.876;2023-04-03T11:33:43;7.80;99.90
27896;DHT22;15241;48.374;10.876;2023-04-03T11:38:44;7.80;99.90
27896;DHT22;15241;48.374;10.876;2023-04-03T11:49:02;7.90;99.90
27896;DHT22;15241;48.374;10.876;2023-04-03T11:59:30;7.90;99.90
27896;DHT22;15241;48.374;10.876;2023-04-03T12:04:31;7.90;99.90
27896;DHT22;15241;48.374;10.876;2023-04-03T12:10:16;8.20;99.90
27896;DHT22;15241;48.374;10.876;2023-04-03T12:15:26;8.20;99.90
27896;DHT22;15241;48.374;10.876;2023-04-03T12:20:53;8.40;99.90
27896;DHT22;15241;48.374;10.876;2023-04-03T12:25:52;8.40;99.90
27896;DHT22;15241;48.374;10.876;2023-04-03T12:30:52;8.60;99.90
27896;DHT22;15241;48.374;10.876;2023-04-03T12:36:01;8.70;99.90
27896;DHT22;15241;48.374;10.876;2023-04-03T12:41:04;9.10;99.90
27896;DHT22;15241;48.374;10.876;2023-04-03T12:46:09;9.40;99.90
27896;DHT22;15241;48.374;10.876;2023-04-03T12:51:08;10.00;99.90
27896;DHT22;15241;48.374;10.876;2023-04-03T13:01:33;12.60;99.90
27896;DHT22;15241;48.374;10.876;2023-04-03T13:06:34;12.80;99.10
27896;DHT22;15241;48.374;10.876;2023-04-03T13:11:36;12.80;99.10
27896;DHT22;15241;48.374;10.876;2023-04-03T13:16:35;12.70;98.70
27896;DHT22;15241;48.374;10.876;2023-04-03T13:21:36;12.20;97.50
27896;DHT22;15241;48.374;10.876;2023-04-03T13:26:35;11.60;97.30
27896;DHT22;15241;48.374;10.876;2023-04-03T13:31:35;11.00;97.80
27896;DHT22;15241;48.374;10.876;2023-04-03T13:36:37;10.60;98.80
27896;DHT22;15241;48.374;10.876;2023-04-03T13:41:37;10.10;98.80
27896;DHT22;15241;48.374;10.876;2023-04-03T13:46:37;9.90;97.60
27896;DHT22;15241;48.374;10.876;2023-04-03T13:51:38;10.00;97.50
27896;DHT22;15241;48.374;10.876;2023-04-03T13:56:39;10.10;98.20
27896;DHT22;15241;48.374;10.876;2023-04-03T14:01:46;10.00;97.60
27896;DHT22;15241;48.374;10.876;2023-04-03T14:06:46;10.10;97.10
27896;DHT22;15241;48.374;10.876;2023-04-03T14:11:47;10.30;96.60
27896;DHT22;15241;48.374;10.876;2023-04-03T14:16:50;11.50;97.20
27896;DHT22;15241;48.374;10.876;2023-04-03T14:21:48;12.80;94.60
27896;DHT22;15241;48.374;10.876;2023-04-03T14:26:48;13.20;93.10
27896;DHT22;15241;48.374;10.876;2023-04-03T14:31:48;13.00;92.00
27896;DHT22;15241;48.374;10.876;2023-04-03T14:36:47;12.20;91.50
27896;DHT22;15241;48.374;10.876;2023-04-03T14:41:47;12.80;91.70
27896;DHT22;15241;48.374;10.876;2023-04-03T14:46:46;13.20;89.40
27896;DHT22;15241;48.374;10.876;2023-04-03T14:51:45;14.40;87.00
27896;DHT22;15241;48.374;10.876;2023-04-03T14:56:44;16.40;81.40
27896;DHT22;15241;48.374;10.876;2023-04-03T15:01:43;18.60;73.60
27896;DHT22;15241;48.374;10.876;2023-04-03T15:06:42;21.10;63.30
27896;DHT22;15241;48.374;10.876;2023-04-03T15:11:41;23.30;54.00
27896;DHT22;15241;48.374;10.876;2023-04-03T15:16:40;24.70;45.70
27896;DHT22;15241;48.374;10.876;2023-04-03T15:21:39;24.20;44.80
27896;DHT22;15241;48.374;10.876;2023-04-03T15:26:38;22.90;46.30
27896;DHT22;15241;48.374;10.876;2023-04-03T15:31:37;21.70;47.40
27896;DHT22;15241;48.374;10.876;2023-04-03T15:36:36;21.20;47.40
27896;DHT22;15241;48.374;10.876;2023-04-03T15:41:35;20.00;46.60
27896;DHT22;15241;48.374;10.876;2023-04-03T15:46:34;19.40;50.20
27896;DHT22;15241;48.374;10.876;2023-04-03T15:51:33;18.70;50.20
27896;DHT22;15241;48.374;10.876;2023-04-03T15:56:32;18.30;49.80
27896;DHT22;15241;48.374;10.876;2023-04-03T16:01:31;17.90;50.10
27896;DHT22;15241;48.374;10.876;2023-04-03T16:06:31;17.70;50.60
27896;DHT22;15241;48.374;10.876;2023-04-03T16:11:31;16.90;51.80
27896;DHT22;15241;48.374;10.876;2023-04-03T16:16:30;15.40;52.10
27896;DHT22;15241;48.374;10.876;2023-04-03T16:21:30;14.80;53.80
27896;DHT22;15241;48.374;10.876;2023-04-03T16:26:29;14.00;54.30
27896;DHT22;15241;48.374;10.876;2023-04-03T16:31:28;13.60;55.70
27896;DHT22;15241;48.374;10.876;2023-04-03T16:36:27;13.50;55.70
27896;DHT22;15241;48.374;10.876;2023-04-03T16:41:26;13.40;56.80
27896;DHT22;15241;48.374;10.876;2023-04-03T16:46:25;13.30;56.20
27896;DHT22;15241;48.374;10.876;2023-04-03T16:51:24;13.00;56.80
27896;DHT22;15241;48.374;10.876;2023-04-03T16:56:23;12.30;58.10
27896;DHT22;15241;48.374;10.876;2023-04-03T17:01:23;11.60;59.30
27896;DHT22;15241;48.374;10.876;2023-04-03T17:06:22;11.20;60.80
27896;DHT22;15241;48.374;10.876;2023-04-03T17:11:21;10.70;60.90
27896;DHT22;15241;48.374;10.876;2023-04-03T17:16:21;10.30;62.70
27896;DHT22;15241;48.374;10.876;2023-04-03T17:21:20;9.90;63.40
27896;DHT22;15241;48.374;10.876;2023-04-03T17:26:19;9.50;65.50
27896;DHT22;15241;48.374;10.876;2023-04-03T17:31:18;9.10;67.70
27896;DHT22;15241;48.374;10.876;2023-04-03T17:36:17;8.70;67.40
27896;DHT22;15241;48.374;10.876;2023-04-03T17:41:17;8.50;67.60
27896;DHT22;15241;48.374;10.876;2023-04-03T17:46:16;8.30;68.60
27896;DHT22;15241;48.374;10.876;2023-04-03T17:51:17;7.90;70.50
27896;DHT22;15241;48.374;10.876;2023-04-03T17:56:18;7.90;71.60
27896;DHT22;15241;48.374;10.876;2023-04-03T18:01:20;7.80;73.70
27896;DHT22;15241;48.374;10.876;2023-04-03T18:06:21;7.50;74.20
27896;DHT22;15241;48.374;10.876;2023-04-03T18:11:21;7.30;75.10
27896;DHT22;15241;48.374;10.876;2023-04-03T18:16:20;7.20;75.40
27896;DHT22;15241;48.374;10.876;2023-04-03T18:21:20;7.10;76.70
27896;DHT22;15241;48.374;10.876;2023-04-03T18:26:19;6.90;77.90
27896;DHT22;15241;48.374;10.876;2023-04-03T18:31:18;6.70;77.00
27896;DHT22;15241;48.374;10.876;2023-04-03T18:36:18;6.50;78.80
27896;DHT22;15241;48.374;10.876;2023-04-03T18:41:17;6.50;79.50
27896;DHT22;15241;48.374;10.876;2023-04-03T18:46:17;6.30;80.00
27896;DHT22;15241;48.374;10.876;2023-04-03T18:51:16;6.20;81.30
27896;DHT22;15241;48.374;10.876;2023-04-03T18:56:16;6.00;81.30
27896;DHT22;15241;48.374;10.876;2023-04-03T19:01:15;6.00;82.00
27896;DHT22;15241;48.374;10.876;2023-04-03T19:06:14;5.90;82.90
27896;DHT22;15241;48.374;10.876;2023-04-03T19:11:13;5.80;83.30
27896;DHT22;15241;48.374;10.876;2023-04-03T19:16:12;5.60;84.70
27896;DHT22;15241;48.374;10.876;2023-04-03T19:21:11;5.50;86.20
27896;DHT22;15241;48.374;10.876;2023-04-03T19:26:12;5.50;85.90
27896;DHT22;15241;48.374;10.876;2023-04-03T19:36:19;5.20;86.50
27896;DHT22;15241;48.374;10.876;2023-04-03T19:41:20;5.10;86.80
27896;DHT22;15241;48.374;10.876;2023-04-03T19:51:29;4.90;88.00
27896;DHT22;15241;48.374;10.876;2023-04-03T19:56:28;4.90;88.80
27896;DHT22;15241;48.374;10.876;2023-04-03T20:01:27;4.80;89.20
27896;DHT22;15241;48.374;10.876;2023-04-03T20:06:26;4.70;90.10
27896;DHT22;15241;48.374;10.876;2023-04-03T20:11:25;4.60;90.40
27896;DHT22;15241;48.374;10.876;2023-04-03T20:16:24;4.60;90.40
27896;DHT22;15241;48.374;10.876;2023-04-03T20:21:27;4.50;90.70
27896;DHT22;15241;48.374;10.876;2023-04-03T20:26:28;4.40;91.40
27896;DHT22;15241;48.374;10.876;2023-04-03T20:31:29;4.30;91.20
27896;DHT22;15241;48.374;10.876;2023-04-03T20:36:28;4.30;91.90
27896;DHT22;15241;48.374;10.876;2023-04-03T20:41:27;4.20;92.20
27896;DHT22;15241;48.374;10.876;2023-04-03T20:46:26;4.10;92.30
27896;DHT22;15241;48.374;10.876;2023-04-03T20:51:25;4.20;92.40
27896;DHT22;15241;48.374;10.876;2023-04-03T20:56:24;4.10;92.20
27896;DHT22;15241;48.374;10.876;2023-04-03T21:01:25;4.00;92.10
27896;DHT22;15241;48.374;10.876;2023-04-03T21:22:29;3.70;92.70
27896;DHT22;15241;48.374;10.876;2023-04-03T21:27:28;3.60;92.80
27896;DHT22;15241;48.374;10.876;2023-04-03T21:32:27;3.50;93.00
27896;DHT22;15241;48.374;10.876;2023-04-03T21:37:26;3.50;92.80
27896;DHT22;15241;48.374;10.876;2023-04-03T21:42:25;3.40;93.00
27896;DHT22;15241;48.374;10.876;2023-04-03T21:47:24;3.50;93.00
27896;DHT22;15241;48.374;10.876;2023-04-03T21:52:23;3.40;93.20
27896;DHT22;15241;48.374;10.876;2023-04-03T21:57:22;3.40;93.30
27896;DHT22;15241;48.374;10.876;2023-04-03T22:02:21;3.30;93.60
27896;DHT22;15241;48.374;10.876;2023-04-03T22:07:20;3.30;93.50
27896;DHT22;15241;48.374;10.876;2023-04-03T22:12:19;3.20;93.70
27896;DHT22;15241;48.374;10.876;2023-04-03T22:17:18;3.20;94.20
27896;DHT22;15241;48.374;10.876;2023-04-03T22:22:17;3.10;94.00
27896;DHT22;15241;48.374;10.876;2023-04-03T22:27:16;2.90;94.10
27896;DHT22;15241;48.374;10.876;2023-04-03T22:32:14;2.90;94.70
27896;DHT22;15241;48.374;10.876;2023-04-03T22:37:13;2.80;94.80
27896;DHT22;15241;48.374;10.876;2023-04-03T22:42:12;2.70;94.90
27896;DHT22;15241;48.374;10.876;2023-04-03T22:47:11;2.70;95.40
27896;DHT22;15241;48.374;10.876;2023-04-03T22:52:10;2.70;95.40
27896;DHT22;15241;48.374;10.876;2023-04-03T22:57:09;2.60;95.70
27896;DHT22;15241;48.374;10.876;2023-04-03T23:02:08;2.50;95.80
27896;DHT22;15241;48.374;10.876;2023-04-03T23:07:07;2.50;95.90
27896;DHT22;15241;48.374;10.876;2023-04-03T23:12:06;2.50;96.00
27896;DHT22;15241;48.374;10.876;2023-04-03T23:17:05;2.50;96.60
27896;DHT22;15241;48.374;10.876;2023-04-03T23:22:04;2.40;99.90
27896;DHT22;15241;48.374;10.876;2023-04-03T23:27:03;2.30;99.90
27896;DHT22;15241;48.374;10.876;2023-04-03T23:32:02;2.30;99.90
27896;DHT22;15241;48.374;10.876;2023-04-03T23:48:09;2.10;99.90
27896;DHT22;15241;48.374;10.876;2023-04-03T23:53:08;2.10;99.90
27896;DHT22;15241;48.374;10.876;2023-04-03T23:58:07;2.00;99.90
